createdAt,value
2018-06-08T00:00:47.777Z,77.80
2018-06-08T00:03:16.104Z,77.80
2018-06-08T00:05:44.500Z,78.80
2018-06-08T00:08:12.982Z,78.50
2018-06-08T00:10:41.338Z,79.00
2018-06-08T00:13:09.704Z,80.10
2018-06-08T00:15:38.020Z,80.40
2018-06-08T00:18:06.337Z,81.20
2018-06-08T00:20:34.739Z,80.90
2018-06-08T00:23:03.076Z,81.10
2018-06-08T00:25:31.509Z,81.30
2018-06-08T00:27:59.882Z,81.60
2018-06-08T00:30:28.260Z,80.80
2018-06-08T00:32:56.649Z,81.10
2018-06-08T00:35:25.092Z,79.60
2018-06-08T00:37:53.447Z,79.00
2018-06-08T00:40:21.824Z,79.10
2018-06-08T00:42:50.146Z,79.30
2018-06-08T00:45:18.482Z,79.50
2018-06-08T00:47:46.868Z,79.40
2018-06-08T00:50:15.217Z,79.30
2018-06-08T00:52:43.528Z,79.20
2018-06-08T00:55:12.042Z,79.30
2018-06-08T00:57:40.466Z,79.60
2018-06-08T01:00:08.928Z,79.50
2018-06-08T01:02:37.386Z,79.80
2018-06-08T01:05:06.070Z,79.90
2018-06-08T01:07:34.458Z,80.10
2018-06-08T01:10:02.897Z,80.00
2018-06-08T01:12:31.327Z,80.50
2018-06-08T01:14:59.688Z,80.90
2018-06-08T01:17:28.065Z,81.00
2018-06-08T01:19:56.448Z,81.50
2018-06-08T01:22:24.843Z,81.70
2018-06-08T01:24:53.220Z,81.80
2018-06-08T01:27:21.638Z,81.30
2018-06-08T01:29:50.011Z,81.90
2018-06-08T01:32:18.398Z,82.70
2018-06-08T01:34:46.774Z,82.90
2018-06-08T01:37:15.164Z,83.30
2018-06-08T01:39:43.580Z,83.60
2018-06-08T01:42:12.032Z,83.70
2018-06-08T01:44:40.500Z,83.90
2018-06-08T01:47:08.827Z,83.90
2018-06-08T01:49:37.143Z,83.60
2018-06-08T01:52:05.541Z,84.10
2018-06-08T01:54:33.978Z,84.40
2018-06-08T01:57:02.355Z,84.50
2018-06-08T01:59:30.885Z,84.80
2018-06-08T02:01:59.241Z,85.10
2018-06-08T02:04:27.638Z,84.40
2018-06-08T02:06:55.997Z,83.70
2018-06-08T02:09:24.321Z,84.20
2018-06-08T02:11:52.706Z,84.00
2018-06-08T02:14:21.072Z,84.50
2018-06-08T02:16:49.447Z,85.00
2018-06-08T02:19:17.899Z,84.40
2018-06-08T02:21:46.288Z,84.30
2018-06-08T02:24:14.624Z,84.40
2018-06-08T02:26:42.985Z,84.50
2018-06-08T02:29:11.328Z,84.50
2018-06-08T02:31:39.692Z,84.60
2018-06-08T02:34:07.973Z,84.70
2018-06-08T02:36:36.345Z,84.80
2018-06-08T02:39:07.244Z,84.90
2018-06-08T02:41:35.938Z,85.20
2018-06-08T02:44:04.317Z,84.90
2018-06-08T02:46:32.845Z,84.80
2018-06-08T02:49:01.196Z,85.10
2018-06-08T02:51:29.555Z,84.90
2018-06-08T02:53:57.911Z,85.30
2018-06-08T02:56:26.314Z,85.40
2018-06-08T02:58:58.727Z,85.60
2018-06-08T03:01:27.118Z,85.70
2018-06-08T03:03:55.526Z,86.00
2018-06-08T03:06:23.902Z,86.20
2018-06-08T03:08:52.234Z,86.40
2018-06-08T03:11:20.583Z,86.50
2018-06-08T03:13:48.949Z,86.00
2018-06-08T03:16:17.414Z,86.00
2018-06-08T03:18:45.800Z,86.60
2018-06-08T03:21:14.104Z,85.90
2018-06-08T03:23:42.471Z,85.90
2018-06-08T03:26:10.812Z,86.00
2018-06-08T03:28:39.167Z,86.20
2018-06-08T03:31:07.544Z,86.30
2018-06-08T03:33:35.879Z,86.20
2018-06-08T03:36:04.264Z,86.30
2018-06-08T03:38:32.568Z,86.30
2018-06-08T03:41:00.903Z,86.20
2018-06-08T03:43:29.221Z,85.90
2018-06-08T03:45:57.559Z,86.20
2018-06-08T03:48:25.958Z,86.20
2018-06-08T03:50:54.254Z,86.00
2018-06-08T03:53:22.579Z,85.70
2018-06-08T03:55:50.926Z,85.30
2018-06-08T03:58:19.316Z,84.90
2018-06-08T04:00:47.753Z,85.00
2018-06-08T04:03:16.082Z,84.80
2018-06-08T04:05:44.496Z,84.40
2018-06-08T04:08:12.932Z,84.10
2018-06-08T04:10:41.538Z,85.40
2018-06-08T04:13:09.905Z,85.40
2018-06-08T04:15:38.261Z,85.80
2018-06-08T04:18:07.191Z,85.50
2018-06-08T04:20:35.605Z,85.90
2018-06-08T04:23:03.971Z,86.10
2018-06-08T04:25:32.270Z,86.20
2018-06-08T04:28:00.604Z,86.50
2018-06-08T04:30:28.898Z,85.80
2018-06-08T04:32:57.251Z,85.80
2018-06-08T04:35:25.588Z,85.90
2018-06-08T04:37:53.906Z,85.90
2018-06-08T04:40:22.241Z,85.70
2018-06-08T04:42:50.595Z,85.90
2018-06-08T04:45:18.908Z,85.60
2018-06-08T04:47:47.320Z,85.40
2018-06-08T04:50:15.680Z,85.80
2018-06-08T04:52:44.094Z,85.40
2018-06-08T04:55:12.651Z,85.30
2018-06-08T04:57:41.068Z,85.20
2018-06-08T05:00:09.405Z,84.40
2018-06-08T05:02:37.742Z,84.10
2018-06-08T05:05:06.080Z,83.00
2018-06-08T05:07:34.505Z,83.20
2018-06-08T05:10:03.309Z,82.90
2018-06-08T05:12:31.708Z,83.20
2018-06-08T05:15:00.360Z,83.30
2018-06-08T05:17:28.733Z,83.20
2018-06-08T05:19:57.661Z,82.70
2018-06-08T05:22:26.108Z,82.50
2018-06-08T05:24:54.453Z,82.40
2018-06-08T05:27:22.812Z,82.70
2018-06-08T05:29:51.280Z,82.90
2018-06-08T05:32:19.663Z,82.30
2018-06-08T05:34:49.033Z,82.50
2018-06-08T05:37:20.701Z,81.90
2018-06-08T05:39:49.083Z,81.30
2018-06-08T05:42:17.502Z,81.50
2018-06-08T05:44:46.064Z,81.20
2018-06-08T05:47:14.494Z,81.30
2018-06-08T05:49:42.877Z,81.30
2018-06-08T05:52:11.245Z,81.00
2018-06-08T05:57:07.802Z,80.50
2018-06-08T05:59:36.227Z,80.00
2018-06-08T06:02:04.644Z,80.50
2018-06-08T06:04:33.032Z,80.20
2018-06-08T06:07:01.355Z,80.70
2018-06-08T06:09:29.801Z,80.30
2018-06-08T06:11:58.282Z,80.20
2018-06-08T06:16:55.119Z,81.30
2018-06-08T06:19:23.501Z,81.40
2018-06-08T06:21:51.831Z,81.30
2018-06-08T06:24:20.215Z,81.60
2018-06-08T06:26:48.634Z,81.30
2018-06-08T06:29:17.037Z,81.80
2018-06-08T06:31:45.498Z,81.80
2018-06-08T06:34:13.839Z,82.20
2018-06-08T06:36:42.198Z,82.60
2018-06-08T06:39:10.627Z,82.10
2018-06-08T06:41:38.962Z,82.00
2018-06-08T06:44:07.332Z,81.80
2018-06-08T06:46:36.516Z,81.10
2018-06-08T06:49:05.073Z,80.80
2018-06-08T06:51:33.566Z,80.90
2018-06-08T06:54:01.975Z,80.70
2018-06-08T06:56:30.449Z,81.20
2018-06-08T06:58:58.761Z,81.30
2018-06-08T07:01:27.220Z,80.80
2018-06-08T07:03:55.583Z,80.90
2018-06-08T07:06:23.957Z,79.20
2018-06-08T07:08:52.317Z,78.60
2018-06-08T07:11:20.718Z,79.00
2018-06-08T07:13:49.064Z,78.90
2018-06-08T07:16:17.428Z,79.00
2018-06-08T07:18:45.874Z,79.30
2018-06-08T07:21:14.158Z,79.00
2018-06-08T07:23:42.510Z,78.60
2018-06-08T07:26:11.007Z,78.20
2018-06-08T07:28:39.449Z,78.10
2018-06-08T07:31:08.206Z,79.80
2018-06-08T07:33:36.639Z,80.20
2018-06-08T07:36:04.988Z,79.90
2018-06-08T07:38:33.413Z,80.20
2018-06-08T07:41:01.964Z,80.90
2018-06-08T07:43:30.410Z,81.70
2018-06-08T07:45:58.756Z,81.20
2018-06-08T07:48:27.179Z,81.80
2018-06-08T07:50:55.505Z,80.30
2018-06-08T07:53:24.191Z,80.20
2018-06-08T07:55:52.630Z,80.50
2018-06-08T07:58:21.108Z,80.30
2018-06-08T08:00:49.439Z,80.90
2018-06-08T08:03:17.841Z,81.40
2018-06-08T08:05:46.390Z,82.20
2018-06-08T08:08:15.166Z,82.60
2018-06-08T08:10:43.708Z,81.90
2018-06-08T08:13:12.084Z,80.60
2018-06-08T08:15:43.520Z,80.90
2018-06-08T08:18:11.987Z,80.30
2018-06-08T08:20:40.449Z,80.40
2018-06-08T08:23:08.820Z,80.00
2018-06-08T08:25:37.233Z,79.60
2018-06-08T08:28:05.618Z,79.20
2018-06-08T08:30:33.990Z,79.10
2018-06-08T08:33:02.320Z,79.30
2018-06-08T08:35:30.851Z,79.80
2018-06-08T08:37:59.283Z,80.40
2018-06-08T08:40:27.715Z,80.50
2018-06-08T08:42:56.109Z,80.80
2018-06-08T08:45:25.307Z,81.50
2018-06-08T08:47:53.799Z,82.30
2018-06-08T08:50:22.272Z,83.80
2018-06-08T08:52:50.951Z,83.80
2018-06-08T08:55:19.348Z,83.20
2018-06-08T08:57:47.687Z,83.80
2018-06-08T09:00:16.031Z,83.80
2018-06-08T09:02:44.599Z,84.20
2018-06-08T09:05:12.951Z,84.60
2018-06-08T09:07:41.257Z,84.40
2018-06-08T09:10:09.752Z,84.80
2018-06-08T09:12:38.484Z,85.20
2018-06-08T09:15:07.107Z,84.80
2018-06-08T09:17:35.473Z,84.80
2018-06-08T09:20:03.876Z,83.80
2018-06-08T09:22:32.393Z,83.30
2018-06-08T09:25:00.780Z,83.60
2018-06-08T09:27:29.166Z,83.10
2018-06-08T09:29:57.538Z,83.40
2018-06-08T09:32:25.892Z,83.70
2018-06-08T09:34:54.381Z,83.00
2018-06-08T09:37:22.784Z,82.90
2018-06-08T09:39:51.135Z,82.30
2018-06-08T09:42:20.444Z,82.20
2018-06-08T09:44:48.812Z,81.80
2018-06-08T09:47:17.190Z,82.20
2018-06-08T09:49:45.666Z,81.40
2018-06-08T09:52:13.962Z,81.50
2018-06-08T09:54:42.353Z,80.60
2018-06-08T09:57:10.791Z,80.40
2018-06-08T09:59:39.146Z,81.40
2018-06-08T10:02:07.549Z,82.70
2018-06-08T10:04:36.145Z,83.00
2018-06-08T10:07:04.535Z,81.90
2018-06-08T10:09:32.962Z,82.30
2018-06-08T10:12:01.492Z,83.10
2018-06-08T10:14:29.877Z,83.10
2018-06-08T10:16:58.308Z,83.80
2018-06-08T10:19:26.699Z,83.00
2018-06-08T10:21:55.076Z,83.30
2018-06-08T10:24:23.576Z,83.50
2018-06-08T10:26:51.965Z,84.10
2018-06-08T10:29:21.202Z,84.10
2018-06-08T10:31:49.513Z,83.80
2018-06-08T10:34:24.610Z,83.80
2018-06-08T10:39:21.125Z,84.40
2018-06-08T10:41:49.488Z,84.60
2018-06-08T10:44:17.808Z,85.20
2018-06-08T10:46:46.175Z,84.70
2018-06-08T10:49:14.561Z,84.40
2018-06-08T10:51:42.923Z,84.70
2018-06-08T10:54:11.501Z,84.60
2018-06-08T10:56:40.320Z,85.10
2018-06-08T10:59:08.730Z,85.50
2018-06-08T11:01:37.130Z,86.20
2018-06-08T11:04:05.539Z,86.90
2018-06-08T11:06:33.878Z,88.10
2018-06-08T11:09:02.277Z,88.60
2018-06-08T11:11:30.700Z,89.60
2018-06-08T11:13:59.159Z,90.40
2018-06-08T11:16:27.582Z,90.80
2018-06-08T11:18:55.993Z,91.00
2018-06-08T11:21:24.884Z,91.40
2018-06-08T11:23:53.314Z,91.90
2018-06-08T11:26:21.616Z,92.00
2018-06-08T11:28:50.007Z,92.10
2018-06-08T11:31:18.442Z,91.90
2018-06-08T11:33:46.804Z,92.20
2018-06-08T11:36:15.203Z,92.30
2018-06-08T11:38:43.600Z,92.50
2018-06-08T11:41:11.944Z,93.10
2018-06-08T11:43:40.315Z,93.30
2018-06-08T11:46:08.649Z,93.90
2018-06-08T11:48:37.176Z,94.50
2018-06-08T11:51:05.557Z,94.90
2018-06-08T11:53:33.946Z,95.20
2018-06-08T11:56:02.297Z,95.30
2018-06-08T11:58:30.616Z,95.80
2018-06-08T12:00:58.937Z,96.10
2018-06-08T12:03:27.954Z,96.40
2018-06-08T12:05:56.366Z,96.30
2018-06-08T12:08:24.672Z,97.10
2018-06-08T12:10:53.070Z,97.40
2018-06-08T12:13:21.496Z,97.70
2018-06-08T12:15:49.802Z,97.50
2018-06-08T12:18:18.193Z,97.20
2018-06-08T12:20:46.599Z,97.20
2018-06-08T12:23:14.950Z,97.30
2018-06-08T12:25:43.277Z,97.40
2018-06-08T12:33:07.746Z,97.10
2018-06-08T12:35:36.075Z,96.50
2018-06-08T12:38:04.431Z,96.50
2018-06-08T12:40:33.769Z,96.30
2018-06-08T12:43:02.214Z,96.40
2018-06-08T12:45:30.985Z,95.90
2018-06-08T12:47:59.570Z,96.00
2018-06-08T12:50:28.101Z,95.80
2018-06-08T12:52:56.471Z,95.80
2018-06-08T12:55:24.939Z,95.80
2018-06-08T12:57:53.316Z,95.70
2018-06-08T13:00:21.688Z,95.50
2018-06-08T13:02:50.136Z,95.60
2018-06-08T13:05:18.619Z,95.40
2018-06-08T13:07:46.928Z,95.30
2018-06-08T13:10:15.350Z,95.10
2018-06-08T13:12:50.106Z,94.80
2018-06-08T13:15:18.433Z,94.80
2018-06-08T13:17:46.941Z,94.50
2018-06-08T13:20:15.239Z,94.80
2018-06-08T13:22:43.590Z,94.90
2018-06-08T13:25:11.965Z,95.20
2018-06-08T13:27:40.408Z,94.50
2018-06-08T13:30:08.829Z,94.10
2018-06-08T13:32:37.205Z,94.30
2018-06-08T13:35:05.696Z,94.40
2018-06-08T13:37:34.029Z,93.30
2018-06-08T13:40:02.380Z,92.80
2018-06-08T13:42:30.739Z,91.90
2018-06-08T13:44:59.107Z,91.80
2018-06-08T13:47:27.479Z,91.50
2018-06-08T13:49:55.858Z,91.70
2018-06-08T13:52:24.276Z,91.40
2018-06-08T13:54:52.605Z,91.40
2018-06-08T13:57:21.012Z,90.70
2018-06-08T13:59:49.332Z,90.20
2018-06-08T14:02:17.691Z,90.60
2018-06-08T14:04:46.042Z,90.10
2018-06-08T14:07:14.452Z,89.60
2018-06-08T14:09:43.063Z,88.70
2018-06-08T14:12:11.510Z,89.80
2018-06-08T14:14:39.900Z,89.90
2018-06-08T14:17:08.278Z,89.60
2018-06-08T14:19:36.633Z,89.10
2018-06-08T14:22:05.013Z,88.70
2018-06-08T14:24:33.543Z,88.00
2018-06-08T14:27:01.889Z,87.80
2018-06-08T14:29:30.348Z,87.90
2018-06-08T14:31:58.772Z,86.20
2018-06-08T14:34:27.211Z,86.90
2018-06-08T14:36:55.572Z,87.00
2018-06-08T14:39:23.866Z,86.60
2018-06-08T14:41:52.373Z,86.50
2018-06-08T14:44:20.823Z,84.80
2018-06-08T14:46:49.309Z,85.00
2018-06-08T14:49:17.652Z,84.40
2018-06-08T14:51:46.045Z,85.70
2018-06-08T14:54:14.429Z,84.20
2018-06-08T14:56:42.759Z,85.30
2018-06-08T14:59:11.101Z,85.00
2018-06-08T15:01:39.511Z,84.20
2018-06-08T15:04:07.846Z,83.70
2018-06-08T15:06:36.251Z,82.30
2018-06-08T15:09:06.140Z,81.80
2018-06-08T15:11:34.472Z,81.00
2018-06-08T15:14:02.825Z,81.50
2018-06-08T15:16:31.251Z,81.20
2018-06-08T15:18:59.633Z,82.90
2018-06-08T15:21:28.031Z,82.10
2018-06-08T15:23:56.442Z,82.40
2018-06-08T15:26:24.821Z,82.40
2018-06-08T15:28:53.182Z,82.70
2018-06-08T15:31:21.561Z,82.10
2018-06-08T15:33:50.010Z,82.20
2018-06-08T15:36:18.391Z,82.10
2018-06-08T15:38:46.742Z,82.10
2018-06-08T15:41:15.084Z,82.40
2018-06-08T15:43:44.160Z,81.80
2018-06-08T15:46:12.620Z,81.30
2018-06-08T15:48:41.038Z,80.40
2018-06-08T15:51:09.348Z,79.70
2018-06-08T15:53:37.816Z,79.10
2018-06-08T15:56:06.429Z,77.70
2018-06-08T15:58:38.036Z,77.00
2018-06-08T16:01:06.592Z,77.10
2018-06-08T16:03:35.295Z,75.60
2018-06-08T16:06:05.742Z,74.50
2018-06-08T16:08:36.564Z,75.10
2018-06-08T16:11:04.947Z,75.60
2018-06-08T16:13:33.233Z,75.60
2018-06-08T16:16:01.646Z,76.40
2018-06-08T16:18:30.163Z,78.00
2018-06-08T16:20:58.590Z,77.60
2018-06-08T16:23:26.991Z,77.40
2018-06-08T16:25:55.399Z,78.60
2018-06-08T16:28:23.871Z,77.80
2018-06-08T16:30:52.272Z,77.10
2018-06-08T16:33:20.708Z,78.20
2018-06-08T16:35:49.659Z,78.00
2018-06-08T16:38:18.008Z,77.70
2018-06-08T16:40:46.568Z,77.40
2018-06-08T16:43:15.205Z,77.00
2018-06-08T16:45:43.629Z,76.80
2018-06-08T16:48:11.982Z,76.10
2018-06-08T16:50:40.481Z,76.20
2018-06-08T16:53:08.948Z,77.20
2018-06-08T16:55:37.979Z,76.00
2018-06-08T16:58:06.371Z,76.40
2018-06-08T17:00:34.773Z,76.80
2018-06-08T17:03:03.124Z,77.20
2018-06-08T17:05:31.499Z,75.90
2018-06-08T17:07:59.839Z,76.10
2018-06-08T17:10:28.182Z,76.10
2018-06-08T17:12:56.549Z,75.60
2018-06-08T17:15:24.859Z,75.70
2018-06-08T17:17:53.984Z,76.00
2018-06-08T17:20:22.317Z,77.30
2018-06-08T17:22:56.469Z,77.40
2018-06-08T17:25:24.869Z,77.60
2018-06-08T17:27:53.412Z,77.30
2018-06-08T17:30:21.849Z,77.60
2018-06-08T17:32:50.259Z,78.80
2018-06-08T17:35:18.629Z,78.70
2018-06-08T17:37:47.041Z,79.00
2018-06-08T17:40:15.709Z,78.40
2018-06-08T17:42:44.134Z,78.70
2018-06-08T17:45:12.508Z,78.50
2018-06-08T17:47:40.866Z,79.00
2018-06-08T17:52:37.377Z,79.10
2018-06-08T17:55:05.778Z,78.90
2018-06-08T18:02:30.564Z,80.10
2018-06-08T18:04:58.900Z,80.60
2018-06-08T18:07:27.211Z,81.00
2018-06-08T18:09:55.611Z,81.70
2018-06-08T18:12:24.038Z,82.20
2018-06-08T18:14:52.413Z,82.40
2018-06-08T18:17:20.840Z,83.30
2018-06-08T18:19:49.343Z,83.60
2018-06-08T18:22:17.747Z,83.40
2018-06-08T18:24:46.098Z,84.00
2018-06-08T18:27:14.539Z,84.80
2018-06-08T18:29:42.925Z,85.00
2018-06-08T18:32:11.271Z,86.30
2018-06-08T18:34:39.556Z,86.50
2018-06-08T18:37:07.915Z,86.70
2018-06-08T18:39:36.324Z,87.30
2018-06-08T18:42:04.689Z,87.10
2018-06-08T18:44:33.096Z,87.40
2018-06-08T18:47:01.498Z,87.40
2018-06-08T18:49:29.912Z,87.90
2018-06-08T18:51:58.302Z,88.00
2018-06-08T18:54:26.856Z,88.20
2018-06-08T18:56:55.211Z,88.40
2018-06-08T18:59:23.577Z,88.80
2018-06-08T19:01:51.934Z,88.80
2018-06-08T19:04:20.297Z,89.00
2018-06-08T19:06:48.741Z,89.30
2018-06-08T19:09:17.148Z,89.10
2018-06-08T19:11:45.492Z,89.30
2018-06-08T19:14:13.896Z,89.50
2018-06-08T19:16:42.240Z,90.10
2018-06-08T19:19:10.663Z,89.80
2018-06-08T19:21:39.182Z,90.10
2018-06-08T19:24:07.515Z,90.20
2018-06-08T19:26:35.903Z,90.40
2018-06-08T19:29:04.339Z,90.60
2018-06-08T19:31:32.783Z,90.70
2018-06-08T19:34:01.141Z,90.80
2018-06-08T19:36:29.562Z,91.20
2018-06-08T19:38:57.956Z,91.10
2018-06-08T19:41:26.306Z,91.20
2018-06-08T19:43:54.750Z,91.30
2018-06-08T19:46:23.112Z,91.50
2018-06-08T19:48:51.420Z,91.50
2018-06-08T19:51:19.735Z,91.60
2018-06-08T19:53:48.128Z,91.70
2018-06-08T19:58:44.625Z,92.30
2018-06-08T20:01:13.080Z,92.20
2018-06-08T20:03:41.492Z,92.30
2018-06-08T20:06:09.912Z,92.40
2018-06-08T20:08:38.335Z,92.70
2018-06-08T20:11:06.645Z,92.70
2018-06-08T20:13:35.081Z,92.80
2018-06-08T20:16:03.500Z,93.00
2018-06-08T20:18:31.898Z,93.20
2018-06-08T20:21:00.232Z,93.30
2018-06-08T20:23:28.649Z,93.40
2018-06-08T20:25:56.997Z,93.50
2018-06-08T20:28:25.373Z,93.60
2018-06-08T20:30:53.761Z,93.70
2018-06-08T20:33:22.131Z,93.80
2018-06-08T20:35:50.521Z,93.90
2018-06-08T20:38:18.896Z,94.00
2018-06-08T20:40:47.295Z,93.90
2018-06-08T20:43:15.714Z,93.90
2018-06-08T20:45:44.055Z,94.00
2018-06-08T20:48:12.432Z,93.90
2018-06-08T20:50:40.767Z,93.70
2018-06-08T20:53:09.176Z,93.70
2018-06-08T20:55:37.501Z,93.60
2018-06-08T20:58:06.032Z,93.30
2018-06-08T21:00:34.415Z,93.10
2018-06-08T21:03:02.773Z,93.00
2018-06-08T21:05:31.101Z,92.80
2018-06-08T21:08:00.143Z,92.40
2018-06-08T21:10:28.569Z,92.60
2018-06-08T21:12:57.047Z,92.20
2018-06-08T21:15:25.434Z,91.70
2018-06-08T21:17:53.782Z,91.50
2018-06-08T21:20:22.158Z,91.60
2018-06-08T21:22:50.540Z,91.20
2018-06-08T21:25:18.942Z,91.10
2018-06-08T21:27:47.295Z,90.90
2018-06-08T21:30:15.618Z,91.00
2018-06-08T21:32:44.046Z,90.80
2018-06-08T21:35:12.482Z,90.50
2018-06-08T21:37:40.913Z,90.30
2018-06-08T21:40:09.345Z,89.60
2018-06-08T21:42:37.722Z,88.00
2018-06-08T21:45:06.062Z,87.60
2018-06-08T21:47:34.456Z,87.60
2018-06-08T21:50:02.831Z,86.80
2018-06-08T21:52:31.291Z,86.70
2018-06-08T21:54:59.703Z,86.80
2018-06-08T21:57:28.081Z,87.20
2018-06-08T21:59:57.442Z,88.00
2018-06-08T22:02:26.119Z,88.30
2018-06-08T22:04:54.501Z,88.80
2018-06-08T22:07:22.809Z,89.40
2018-06-08T22:09:51.110Z,89.70
2018-06-08T22:12:19.427Z,90.30
2018-06-08T22:14:47.811Z,90.30
2018-06-08T22:17:16.163Z,90.60
2018-06-08T22:19:44.627Z,90.60
2018-06-08T22:22:12.989Z,90.60
2018-06-08T22:24:42.336Z,90.60
2018-06-08T22:27:10.699Z,90.50
2018-06-08T22:29:39.106Z,90.60
2018-06-08T22:32:07.469Z,90.70
2018-06-08T22:34:35.811Z,90.80
2018-06-08T22:37:04.243Z,90.70
2018-06-08T22:39:32.638Z,90.60
2018-06-08T22:42:01.016Z,90.70
2018-06-08T22:44:29.350Z,90.20
2018-06-08T22:46:57.734Z,90.10
2018-06-08T22:49:26.051Z,90.10
2018-06-08T22:51:54.636Z,90.20
2018-06-08T22:54:22.977Z,90.30
2018-06-08T22:56:51.311Z,90.50
2018-06-08T22:59:19.652Z,90.60
2018-06-08T23:01:48.021Z,90.70
2018-06-08T23:04:16.655Z,90.70
2018-06-08T23:09:13.024Z,90.40
2018-06-08T23:11:41.494Z,90.30
2018-06-08T23:14:09.862Z,90.20
2018-06-08T23:16:38.247Z,90.00
2018-06-08T23:21:34.770Z,89.20
2018-06-08T23:24:03.250Z,89.20
2018-06-08T23:26:31.628Z,88.50
2018-06-08T23:29:00.057Z,87.00
2018-06-08T23:31:28.437Z,87.20
2018-06-08T23:33:56.752Z,86.60
2018-06-08T23:36:25.065Z,86.10
2018-06-08T23:38:53.370Z,85.80
2018-06-08T23:41:21.720Z,85.10
2018-06-08T23:43:50.194Z,84.30
2018-06-08T23:46:18.568Z,84.20
2018-06-08T23:48:47.413Z,83.80
2018-06-08T23:51:15.793Z,83.30
2018-06-08T23:53:44.221Z,82.30
2018-06-08T23:56:12.765Z,81.90
2018-06-08T23:58:41.132Z,81.40
